sensor_id;sensor_type;location;lat;lon;timestamp;P1;durP1;ratioP1;P2;durP2;ratioP2
20557;SDS011;10437;48.156;11.530;2022-07-29T00:00:40;2.38;;;1.10;;
20557;SDS011;10437;48.156;11.530;2022-07-29T00:03:09;1.45;;;0.93;;
20557;SDS011;10437;48.156;11.530;2022-07-29T00:05:39;2.72;;;1.05;;
20557;SDS011;10437;48.156;11.530;2022-07-29T00:08:07;1.40;;;1.10;;
20557;SDS011;10437;48.156;11.530;2022-07-29T00:10:34;1.58;;;1.10;;
20557;SDS011;10437;48.156;11.530;2022-07-29T00:13:01;1.73;;;1.20;;
20557;SDS011;10437;48.156;11.530;2022-07-29T00:15:29;2.28;;;1.30;;
20557;SDS011;10437;48.156;11.530;2022-07-29T00:17:56;2.50;;;1.27;;
20557;SDS011;10437;48.156;11.530;2022-07-29T00:20:23;1.92;;;1.27;;
20557;SDS011;10437;48.156;11.530;2022-07-29T00:22:51;2.50;;;1.20;;
20557;SDS011;10437;48.156;11.530;2022-07-29T00:25:18;2.83;;;1.52;;
20557;SDS011;10437;48.156;11.530;2022-07-29T00:27:45;2.05;;;1.55;;
20557;SDS011;10437;48.156;11.530;2022-07-29T00:30:13;2.10;;;1.50;;
20557;SDS011;10437;48.156;11.530;2022-07-29T00:32:40;2.60;;;1.48;;
20557;SDS011;10437;48.156;11.530;2022-07-29T00:35:07;2.53;;;1.48;;
20557;SDS011;10437;48.156;11.530;2022-07-29T00:37:54;3.95;;;1.52;;
20557;SDS011;10437;48.156;11.530;2022-07-29T00:40:21;4.88;;;1.60;;
20557;SDS011;10437;48.156;11.530;2022-07-29T00:42:49;2.10;;;1.30;;
20557;SDS011;10437;48.156;11.530;2022-07-29T00:45:17;3.05;;;1.77;;
20557;SDS011;10437;48.156;11.530;2022-07-29T00:47:44;3.28;;;1.73;;
20557;SDS011;10437;48.156;11.530;2022-07-29T00:50:12;1.60;;;1.20;;
20557;SDS011;10437;48.156;11.530;2022-07-29T00:52:40;2.80;;;1.60;;
20557;SDS011;10437;48.156;11.530;2022-07-29T00:55:10;1.85;;;1.40;;
20557;SDS011;10437;48.156;11.530;2022-07-29T00:57:38;3.88;;;1.45;;
20557;SDS011;10437;48.156;11.530;2022-07-29T01:00:07;2.17;;;1.33;;
20557;SDS011;10437;48.156;11.530;2022-07-29T01:02:36;3.17;;;1.38;;
20557;SDS011;10437;48.156;11.530;2022-07-29T01:05:04;2.67;;;1.30;;
20557;SDS011;10437;48.156;11.530;2022-07-29T01:07:32;3.05;;;1.30;;
20557;SDS011;10437;48.156;11.530;2022-07-29T01:10:01;1.55;;;1.10;;
20557;SDS011;10437;48.156;11.530;2022-07-29T01:12:30;2.13;;;1.45;;
20557;SDS011;10437;48.156;11.530;2022-07-29T01:14:59;2.05;;;1.50;;
20557;SDS011;10437;48.156;11.530;2022-07-29T01:17:28;1.83;;;1.10;;
20557;SDS011;10437;48.156;11.530;2022-07-29T01:20:03;3.17;;;1.40;;
20557;SDS011;10437;48.156;11.530;2022-07-29T01:22:37;1.92;;;1.20;;
20557;SDS011;10437;48.156;11.530;2022-07-29T01:25:24;1.35;;;1.17;;
20557;SDS011;10437;48.156;11.530;2022-07-29T01:28:16;1.42;;;0.90;;
20557;SDS011;10437;48.156;11.530;2022-07-29T01:30:56;1.38;;;1.10;;
20557;SDS011;10437;48.156;11.530;2022-07-29T01:33:24;1.65;;;1.02;;
20557;SDS011;10437;48.156;11.530;2022-07-29T01:36:07;1.20;;;1.00;;
20557;SDS011;10437;48.156;11.530;2022-07-29T01:38:37;1.02;;;0.90;;
20557;SDS011;10437;48.156;11.530;2022-07-29T01:41:06;1.10;;;0.80;;
20557;SDS011;10437;48.156;11.530;2022-07-29T01:43:39;1.00;;;0.80;;
20557;SDS011;10437;48.156;11.530;2022-07-29T01:46:11;2.35;;;0.90;;
20557;SDS011;10437;48.156;11.530;2022-07-29T01:48:43;1.20;;;0.90;;
20557;SDS011;10437;48.156;11.530;2022-07-29T01:51:14;0.93;;;0.75;;
20557;SDS011;10437;48.156;11.530;2022-07-29T01:53:45;0.90;;;0.70;;
20557;SDS011;10437;48.156;11.530;2022-07-29T01:56:18;0.80;;;0.80;;
20557;SDS011;10437;48.156;11.530;2022-07-29T01:58:47;1.60;;;0.80;;
20557;SDS011;10437;48.156;11.530;2022-07-29T02:01:15;2.78;;;0.80;;
20557;SDS011;10437;48.156;11.530;2022-07-29T02:03:44;1.13;;;0.80;;
20557;SDS011;10437;48.156;11.530;2022-07-29T02:06:12;1.60;;;1.00;;
20557;SDS011;10437;48.156;11.530;2022-07-29T02:08:44;2.08;;;0.90;;
20557;SDS011;10437;48.156;11.530;2022-07-29T02:11:13;1.30;;;0.70;;
20557;SDS011;10437;48.156;11.530;2022-07-29T02:13:40;1.45;;;0.80;;
20557;SDS011;10437;48.156;11.530;2022-07-29T02:16:09;1.02;;;0.82;;
20557;SDS011;10437;48.156;11.530;2022-07-29T02:18:39;1.00;;;0.80;;
20557;SDS011;10437;48.156;11.530;2022-07-29T02:21:08;1.63;;;0.82;;
20557;SDS011;10437;48.156;11.530;2022-07-29T02:23:35;0.80;;;0.70;;
20557;SDS011;10437;48.156;11.530;2022-07-29T02:26:05;1.48;;;0.80;;
20557;SDS011;10437;48.156;11.530;2022-07-29T02:28:34;0.95;;;0.80;;
20557;SDS011;10437;48.156;11.530;2022-07-29T02:31:02;1.77;;;0.90;;
20557;SDS011;10437;48.156;11.530;2022-07-29T02:33:31;2.00;;;0.80;;
20557;SDS011;10437;48.156;11.530;2022-07-29T02:35:59;1.00;;;0.70;;
20557;SDS011;10437;48.156;11.530;2022-07-29T02:38:26;1.92;;;0.93;;
20557;SDS011;10437;48.156;11.530;2022-07-29T02:41:13;1.15;;;0.90;;
20557;SDS011;10437;48.156;11.530;2022-07-29T02:43:43;1.27;;;0.93;;
20557;SDS011;10437;48.156;11.530;2022-07-29T02:46:13;1.05;;;0.75;;
20557;SDS011;10437;48.156;11.530;2022-07-29T02:48:47;1.27;;;0.73;;
20557;SDS011;10437;48.156;11.530;2022-07-29T02:51:19;1.58;;;1.00;;
20557;SDS011;10437;48.156;11.530;2022-07-29T02:53:51;0.80;;;0.80;;
20557;SDS011;10437;48.156;11.530;2022-07-29T02:56:23;1.50;;;0.98;;
20557;SDS011;10437;48.156;11.530;2022-07-29T02:58:54;1.67;;;1.00;;
20557;SDS011;10437;48.156;11.530;2022-07-29T03:01:23;1.42;;;0.80;;
20557;SDS011;10437;48.156;11.530;2022-07-29T03:03:56;1.08;;;0.90;;
20557;SDS011;10437;48.156;11.530;2022-07-29T03:06:26;2.53;;;0.90;;
20557;SDS011;10437;48.156;11.530;2022-07-29T03:08:55;1.20;;;0.90;;
20557;SDS011;10437;48.156;11.530;2022-07-29T03:11:22;1.67;;;1.00;;
20557;SDS011;10437;48.156;11.530;2022-07-29T03:13:49;2.88;;;0.80;;
20557;SDS011;10437;48.156;11.530;2022-07-29T03:16:17;2.00;;;1.00;;
20557;SDS011;10437;48.156;11.530;2022-07-29T03:18:45;1.45;;;0.80;;
20557;SDS011;10437;48.156;11.530;2022-07-29T03:21:14;1.20;;;0.90;;
20557;SDS011;10437;48.156;11.530;2022-07-29T03:23:43;1.50;;;1.08;;
20557;SDS011;10437;48.156;11.530;2022-07-29T03:26:10;0.80;;;0.80;;
20557;SDS011;10437;48.156;11.530;2022-07-29T03:28:38;1.75;;;0.85;;
20557;SDS011;10437;48.156;11.530;2022-07-29T03:31:05;3.90;;;1.15;;
20557;SDS011;10437;48.156;11.530;2022-07-29T03:33:32;1.45;;;1.02;;
20557;SDS011;10437;48.156;11.530;2022-07-29T03:35:59;1.15;;;0.90;;
20557;SDS011;10437;48.156;11.530;2022-07-29T03:38:29;0.98;;;0.80;;
20557;SDS011;10437;48.156;11.530;2022-07-29T03:40:59;1.00;;;0.80;;
20557;SDS011;10437;48.156;11.530;2022-07-29T03:43:28;1.88;;;1.20;;
20557;SDS011;10437;48.156;11.530;2022-07-29T03:45:58;1.88;;;1.00;;
20557;SDS011;10437;48.156;11.530;2022-07-29T03:48:28;3.03;;;1.10;;
20557;SDS011;10437;48.156;11.530;2022-07-29T03:50:58;1.70;;;1.00;;
20557;SDS011;10437;48.156;11.530;2022-07-29T03:53:26;1.55;;;1.10;;
20557;SDS011;10437;48.156;11.530;2022-07-29T03:55:56;1.45;;;1.20;;
20557;SDS011;10437;48.156;11.530;2022-07-29T03:58:25;3.58;;;1.00;;
20557;SDS011;10437;48.156;11.530;2022-07-29T04:00:53;1.15;;;0.93;;
20557;SDS011;10437;48.156;11.530;2022-07-29T04:03:21;2.22;;;1.27;;
20557;SDS011;10437;48.156;11.530;2022-07-29T04:05:57;2.75;;;1.15;;
20557;SDS011;10437;48.156;11.530;2022-07-29T04:08:25;1.75;;;1.10;;
20557;SDS011;10437;48.156;11.530;2022-07-29T04:10:52;2.35;;;1.00;;
20557;SDS011;10437;48.156;11.530;2022-07-29T04:13:21;2.13;;;1.23;;
20557;SDS011;10437;48.156;11.530;2022-07-29T04:15:48;1.48;;;1.00;;
20557;SDS011;10437;48.156;11.530;2022-07-29T04:18:15;2.47;;;1.15;;
20557;SDS011;10437;48.156;11.530;2022-07-29T04:20:42;2.95;;;1.48;;
20557;SDS011;10437;48.156;11.530;2022-07-29T04:23:09;4.32;;;1.30;;
20557;SDS011;10437;48.156;11.530;2022-07-29T04:25:37;3.47;;;1.27;;
20557;SDS011;10437;48.156;11.530;2022-07-29T04:28:04;2.40;;;1.30;;
20557;SDS011;10437;48.156;11.530;2022-07-29T04:30:33;1.92;;;1.27;;
20557;SDS011;10437;48.156;11.530;2022-07-29T04:33:03;4.30;;;1.50;;
20557;SDS011;10437;48.156;11.530;2022-07-29T04:35:30;2.50;;;1.23;;
20557;SDS011;10437;48.156;11.530;2022-07-29T04:38:01;1.63;;;1.20;;
20557;SDS011;10437;48.156;11.530;2022-07-29T04:40:28;2.40;;;1.30;;
20557;SDS011;10437;48.156;11.530;2022-07-29T04:42:55;2.08;;;1.08;;
20557;SDS011;10437;48.156;11.530;2022-07-29T04:45:22;5.18;;;1.42;;
20557;SDS011;10437;48.156;11.530;2022-07-29T04:47:51;3.35;;;1.90;;
20557;SDS011;10437;48.156;11.530;2022-07-29T04:50:18;2.22;;;1.60;;
20557;SDS011;10437;48.156;11.530;2022-07-29T04:52:45;3.47;;;1.90;;
20557;SDS011;10437;48.156;11.530;2022-07-29T04:55:12;4.40;;;1.98;;
20557;SDS011;10437;48.156;11.530;2022-07-29T04:57:39;2.22;;;1.40;;
20557;SDS011;10437;48.156;11.530;2022-07-29T05:00:07;4.22;;;1.65;;
20557;SDS011;10437;48.156;11.530;2022-07-29T05:02:35;5.00;;;1.88;;
20557;SDS011;10437;48.156;11.530;2022-07-29T05:05:04;3.15;;;1.90;;
20557;SDS011;10437;48.156;11.530;2022-07-29T05:07:31;3.67;;;1.98;;
20557;SDS011;10437;48.156;11.530;2022-07-29T05:09:58;2.80;;;1.75;;
20557;SDS011;10437;48.156;11.530;2022-07-29T05:12:25;2.88;;;2.08;;
20557;SDS011;10437;48.156;11.530;2022-07-29T05:14:53;2.58;;;2.28;;
20557;SDS011;10437;48.156;11.530;2022-07-29T05:17:20;4.07;;;2.10;;
20557;SDS011;10437;48.156;11.530;2022-07-29T05:19:47;3.33;;;1.90;;
20557;SDS011;10437;48.156;11.530;2022-07-29T05:22:17;6.00;;;2.20;;
20557;SDS011;10437;48.156;11.530;2022-07-29T05:24:44;5.78;;;2.28;;
20557;SDS011;10437;48.156;11.530;2022-07-29T05:27:11;4.15;;;2.10;;
20557;SDS011;10437;48.156;11.530;2022-07-29T05:29:38;2.10;;;1.90;;
20557;SDS011;10437;48.156;11.530;2022-07-29T05:32:06;6.15;;;2.35;;
20557;SDS011;10437;48.156;11.530;2022-07-29T05:34:33;2.58;;;1.60;;
20557;SDS011;10437;48.156;11.530;2022-07-29T05:37:00;3.05;;;1.80;;
20557;SDS011;10437;48.156;11.530;2022-07-29T05:39:29;2.85;;;1.42;;
20557;SDS011;10437;48.156;11.530;2022-07-29T05:41:56;1.90;;;1.40;;
20557;SDS011;10437;48.156;11.530;2022-07-29T05:44:23;1.88;;;1.40;;
20557;SDS011;10437;48.156;11.530;2022-07-29T05:46:50;3.92;;;1.60;;
20557;SDS011;10437;48.156;11.530;2022-07-29T05:49:17;3.05;;;1.83;;
20557;SDS011;10437;48.156;11.530;2022-07-29T05:51:44;3.03;;;1.63;;
20557;SDS011;10437;48.156;11.530;2022-07-29T05:54:12;3.13;;;1.30;;
20557;SDS011;10437;48.156;11.530;2022-07-29T05:56:41;3.63;;;1.42;;
20557;SDS011;10437;48.156;11.530;2022-07-29T05:59:08;1.75;;;1.40;;
20557;SDS011;10437;48.156;11.530;2022-07-29T06:01:35;1.55;;;1.25;;
20557;SDS011;10437;48.156;11.530;2022-07-29T06:04:04;2.58;;;1.23;;
20557;SDS011;10437;48.156;11.530;2022-07-29T06:06:31;2.92;;;1.23;;
20557;SDS011;10437;48.156;11.530;2022-07-29T06:08:58;1.30;;;1.02;;
20557;SDS011;10437;48.156;11.530;2022-07-29T06:11:26;1.58;;;1.23;;
20557;SDS011;10437;48.156;11.530;2022-07-29T06:13:54;3.80;;;1.30;;
20557;SDS011;10437;48.156;11.530;2022-07-29T06:16:21;1.60;;;1.20;;
20557;SDS011;10437;48.156;11.530;2022-07-29T06:18:48;4.10;;;1.40;;
20557;SDS011;10437;48.156;11.530;2022-07-29T06:21:15;2.55;;;1.30;;
20557;SDS011;10437;48.156;11.530;2022-07-29T06:23:42;1.83;;;0.98;;
20557;SDS011;10437;48.156;11.530;2022-07-29T06:26:11;6.10;;;2.63;;
20557;SDS011;10437;48.156;11.530;2022-07-29T06:28:38;1.95;;;1.40;;
20557;SDS011;10437;48.156;11.530;2022-07-29T06:31:06;2.40;;;1.30;;
20557;SDS011;10437;48.156;11.530;2022-07-29T06:33:34;3.00;;;1.40;;
20557;SDS011;10437;48.156;11.530;2022-07-29T06:36:03;2.45;;;1.20;;
20557;SDS011;10437;48.156;11.530;2022-07-29T06:38:30;3.40;;;1.45;;
20557;SDS011;10437;48.156;11.530;2022-07-29T06:40:57;1.90;;;1.15;;
20557;SDS011;10437;48.156;11.530;2022-07-29T06:43:29;3.58;;;1.35;;
20557;SDS011;10437;48.156;11.530;2022-07-29T06:45:59;3.53;;;1.27;;
20557;SDS011;10437;48.156;11.530;2022-07-29T06:48:28;3.33;;;1.30;;
20557;SDS011;10437;48.156;11.530;2022-07-29T06:50:56;2.20;;;1.48;;
20557;SDS011;10437;48.156;11.530;2022-07-29T06:53:23;3.70;;;1.20;;
20557;SDS011;10437;48.156;11.530;2022-07-29T06:55:51;2.28;;;1.27;;
20557;SDS011;10437;48.156;11.530;2022-07-29T06:58:18;2.50;;;1.25;;
20557;SDS011;10437;48.156;11.530;2022-07-29T07:00:46;1.67;;;1.30;;
20557;SDS011;10437;48.156;11.530;2022-07-29T07:03:13;2.17;;;1.30;;
20557;SDS011;10437;48.156;11.530;2022-07-29T07:05:42;1.10;;;1.00;;
20557;SDS011;10437;48.156;11.530;2022-07-29T07:08:09;2.63;;;1.33;;
20557;SDS011;10437;48.156;11.530;2022-07-29T07:10:37;2.08;;;1.30;;
20557;SDS011;10437;48.156;11.530;2022-07-29T07:13:05;1.70;;;1.17;;
20557;SDS011;10437;48.156;11.530;2022-07-29T07:15:32;2.85;;;1.50;;
20557;SDS011;10437;48.156;11.530;2022-07-29T07:17:59;2.08;;;1.10;;
20557;SDS011;10437;48.156;11.530;2022-07-29T07:20:26;2.90;;;1.40;;
20557;SDS011;10437;48.156;11.530;2022-07-29T07:22:55;2.15;;;1.10;;
20557;SDS011;10437;48.156;11.530;2022-07-29T07:25:21;1.95;;;1.20;;
20557;SDS011;10437;48.156;11.530;2022-07-29T07:27:49;1.77;;;1.13;;
20557;SDS011;10437;48.156;11.530;2022-07-29T07:30:16;1.27;;;1.05;;
20557;SDS011;10437;48.156;11.530;2022-07-29T07:32:43;4.60;;;1.30;;
20557;SDS011;10437;48.156;11.530;2022-07-29T07:35:10;2.17;;;1.15;;
20557;SDS011;10437;48.156;11.530;2022-07-29T07:37:38;2.40;;;1.30;;
20557;SDS011;10437;48.156;11.530;2022-07-29T07:40:09;3.28;;;1.17;;
20557;SDS011;10437;48.156;11.530;2022-07-29T07:42:37;2.40;;;1.25;;
20557;SDS011;10437;48.156;11.530;2022-07-29T07:45:04;1.70;;;1.10;;
20557;SDS011;10437;48.156;11.530;2022-07-29T07:47:34;4.00;;;1.70;;
20557;SDS011;10437;48.156;11.530;2022-07-29T07:50:01;3.80;;;1.52;;
20557;SDS011;10437;48.156;11.530;2022-07-29T07:52:28;5.05;;;1.35;;
20557;SDS011;10437;48.156;11.530;2022-07-29T07:54:56;5.93;;;1.98;;
20557;SDS011;10437;48.156;11.530;2022-07-29T07:57:25;2.22;;;1.23;;
20557;SDS011;10437;48.156;11.530;2022-07-29T07:59:52;6.28;;;1.58;;
20557;SDS011;10437;48.156;11.530;2022-07-29T08:02:19;3.58;;;1.25;;
20557;SDS011;10437;48.156;11.530;2022-07-29T08:04:46;2.10;;;1.23;;
20557;SDS011;10437;48.156;11.530;2022-07-29T08:07:13;4.80;;;1.20;;
20557;SDS011;10437;48.156;11.530;2022-07-29T08:09:40;2.28;;;1.58;;
20557;SDS011;10437;48.156;11.530;2022-07-29T08:12:07;4.07;;;1.23;;
20557;SDS011;10437;48.156;11.530;2022-07-29T08:14:36;1.33;;;1.02;;
20557;SDS011;10437;48.156;11.530;2022-07-29T08:17:03;4.18;;;1.33;;
20557;SDS011;10437;48.156;11.530;2022-07-29T08:19:30;2.00;;;1.10;;
20557;SDS011;10437;48.156;11.530;2022-07-29T08:21:57;3.00;;;1.23;;
20557;SDS011;10437;48.156;11.530;2022-07-29T08:24:24;1.95;;;1.10;;
20557;SDS011;10437;48.156;11.530;2022-07-29T08:27:17;2.03;;;1.30;;
20557;SDS011;10437;48.156;11.530;2022-07-29T08:29:45;4.28;;;1.35;;
20557;SDS011;10437;48.156;11.530;2022-07-29T08:32:12;1.60;;;1.15;;
20557;SDS011;10437;48.156;11.530;2022-07-29T08:34:39;3.38;;;1.30;;
20557;SDS011;10437;48.156;11.530;2022-07-29T08:37:07;1.40;;;1.30;;
20557;SDS011;10437;48.156;11.530;2022-07-29T08:39:34;3.30;;;1.45;;
20557;SDS011;10437;48.156;11.530;2022-07-29T08:42:01;1.60;;;1.50;;
20557;SDS011;10437;48.156;11.530;2022-07-29T08:44:28;2.72;;;1.60;;
20557;SDS011;10437;48.156;11.530;2022-07-29T08:46:58;2.92;;;1.30;;
20557;SDS011;10437;48.156;11.530;2022-07-29T08:49:24;2.65;;;1.50;;
20557;SDS011;10437;48.156;11.530;2022-07-29T08:51:52;4.40;;;1.70;;
20557;SDS011;10437;48.156;11.530;2022-07-29T08:54:19;2.35;;;1.60;;
20557;SDS011;10437;48.156;11.530;2022-07-29T08:56:51;2.30;;;1.70;;
20557;SDS011;10437;48.156;11.530;2022-07-29T08:59:19;3.67;;;1.83;;
20557;SDS011;10437;48.156;11.530;2022-07-29T09:01:46;2.10;;;1.65;;
20557;SDS011;10437;48.156;11.530;2022-07-29T09:04:16;3.65;;;1.63;;
20557;SDS011;10437;48.156;11.530;2022-07-29T09:06:46;2.25;;;1.70;;
20557;SDS011;10437;48.156;11.530;2022-07-29T09:09:15;3.50;;;1.73;;
20557;SDS011;10437;48.156;11.530;2022-07-29T09:11:42;1.90;;;1.70;;
20557;SDS011;10437;48.156;11.530;2022-07-29T09:14:10;2.55;;;1.60;;
20557;SDS011;10437;48.156;11.530;2022-07-29T09:16:49;2.38;;;1.75;;
20557;SDS011;10437;48.156;11.530;2022-07-29T09:19:24;2.13;;;1.58;;
20557;SDS011;10437;48.156;11.530;2022-07-29T09:21:52;3.83;;;2.15;;
20557;SDS011;10437;48.156;11.530;2022-07-29T09:24:27;2.90;;;1.52;;
20557;SDS011;10437;48.156;11.530;2022-07-29T09:27:04;1.70;;;1.60;;
20557;SDS011;10437;48.156;11.530;2022-07-29T09:29:35;2.60;;;1.95;;
20557;SDS011;10437;48.156;11.530;2022-07-29T09:32:03;2.30;;;2.10;;
20557;SDS011;10437;48.156;11.530;2022-07-29T09:34:35;4.18;;;2.30;;
20557;SDS011;10437;48.156;11.530;2022-07-29T09:37:03;2.47;;;1.98;;
20557;SDS011;10437;48.156;11.530;2022-07-29T09:39:32;2.47;;;1.75;;
20557;SDS011;10437;48.156;11.530;2022-07-29T09:42:00;1.95;;;1.75;;
20557;SDS011;10437;48.156;11.530;2022-07-29T09:44:40;6.25;;;2.13;;
20557;SDS011;10437;48.156;11.530;2022-07-29T09:47:08;3.22;;;2.20;;
20557;SDS011;10437;48.156;11.530;2022-07-29T09:49:50;7.38;;;2.25;;
20557;SDS011;10437;48.156;11.530;2022-07-29T09:52:19;2.47;;;2.10;;
20557;SDS011;10437;48.156;11.530;2022-07-29T09:54:46;3.10;;;2.17;;
20557;SDS011;10437;48.156;11.530;2022-07-29T09:57:24;4.65;;;2.10;;
20557;SDS011;10437;48.156;11.530;2022-07-29T09:59:56;2.58;;;1.92;;
20557;SDS011;10437;48.156;11.530;2022-07-29T10:02:27;5.47;;;2.42;;
20557;SDS011;10437;48.156;11.530;2022-07-29T10:04:57;2.90;;;2.08;;
20557;SDS011;10437;48.156;11.530;2022-07-29T10:07:24;7.22;;;2.28;;
20557;SDS011;10437;48.156;11.530;2022-07-29T10:09:55;4.35;;;2.20;;
20557;SDS011;10437;48.156;11.530;2022-07-29T10:12:23;5.88;;;2.53;;
20557;SDS011;10437;48.156;11.530;2022-07-29T10:14:50;5.90;;;2.28;;
20557;SDS011;10437;48.156;11.530;2022-07-29T10:17:18;2.72;;;1.95;;
20557;SDS011;10437;48.156;11.530;2022-07-29T10:19:45;4.85;;;2.65;;
20557;SDS011;10437;48.156;11.530;2022-07-29T10:22:15;4.78;;;2.58;;
20557;SDS011;10437;48.156;11.530;2022-07-29T10:24:42;6.35;;;2.70;;
20557;SDS011;10437;48.156;11.530;2022-07-29T10:27:09;3.17;;;2.20;;
20557;SDS011;10437;48.156;11.530;2022-07-29T10:29:36;4.00;;;1.92;;
20557;SDS011;10437;48.156;11.530;2022-07-29T10:32:08;3.78;;;2.33;;
20557;SDS011;10437;48.156;11.530;2022-07-29T10:34:57;3.13;;;2.08;;
20557;SDS011;10437;48.156;11.530;2022-07-29T10:37:36;4.55;;;2.38;;
20557;SDS011;10437;48.156;11.530;2022-07-29T10:40:15;2.53;;;2.08;;
20557;SDS011;10437;48.156;11.530;2022-07-29T10:43:09;3.45;;;2.13;;
20557;SDS011;10437;48.156;11.530;2022-07-29T10:45:44;7.05;;;2.28;;
20557;SDS011;10437;48.156;11.530;2022-07-29T10:48:12;2.88;;;2.28;;
20557;SDS011;10437;48.156;11.530;2022-07-29T10:53:23;3.72;;;2.10;;
20557;SDS011;10437;48.156;11.530;2022-07-29T10:55:51;2.72;;;2.00;;
20557;SDS011;10437;48.156;11.530;2022-07-29T10:58:19;2.20;;;2.00;;
20557;SDS011;10437;48.156;11.530;2022-07-29T11:00:48;3.00;;;2.10;;
20557;SDS011;10437;48.156;11.530;2022-07-29T11:06:14;5.05;;;2.17;;
20557;SDS011;10437;48.156;11.530;2022-07-29T11:08:43;7.95;;;2.38;;
20557;SDS011;10437;48.156;11.530;2022-07-29T11:14:01;6.60;;;1.90;;
20557;SDS011;10437;48.156;11.530;2022-07-29T11:19:25;6.18;;;2.22;;
20557;SDS011;10437;48.156;11.530;2022-07-29T11:21:52;4.38;;;2.00;;
20557;SDS011;10437;48.156;11.530;2022-07-29T11:24:21;2.50;;;2.03;;
20557;SDS011;10437;48.156;11.530;2022-07-29T11:27:08;3.35;;;2.08;;
20557;SDS011;10437;48.156;11.530;2022-07-29T11:29:40;3.42;;;2.35;;
20557;SDS011;10437;48.156;11.530;2022-07-29T11:32:15;4.32;;;2.05;;
20557;SDS011;10437;48.156;11.530;2022-07-29T11:34:45;2.53;;;1.92;;
20557;SDS011;10437;48.156;11.530;2022-07-29T11:37:16;3.22;;;1.77;;
20557;SDS011;10437;48.156;11.530;2022-07-29T11:40:07;5.20;;;2.05;;
20557;SDS011;10437;48.156;11.530;2022-07-29T11:42:48;2.42;;;2.00;;
20557;SDS011;10437;48.156;11.530;2022-07-29T11:45:22;5.55;;;1.60;;
20557;SDS011;10437;48.156;11.530;2022-07-29T11:47:54;5.85;;;2.10;;
20557;SDS011;10437;48.156;11.530;2022-07-29T11:50:31;8.65;;;1.95;;
20557;SDS011;10437;48.156;11.530;2022-07-29T11:53:00;2.22;;;1.63;;
20557;SDS011;10437;48.156;11.530;2022-07-29T11:55:30;7.80;;;2.00;;
20557;SDS011;10437;48.156;11.530;2022-07-29T11:58:01;8.40;;;2.20;;
20557;SDS011;10437;48.156;11.530;2022-07-29T12:00:29;2.85;;;1.52;;
20557;SDS011;10437;48.156;11.530;2022-07-29T12:02:58;2.53;;;1.95;;
20557;SDS011;10437;48.156;11.530;2022-07-29T12:05:33;2.67;;;2.10;;
20557;SDS011;10437;48.156;11.530;2022-07-29T12:08:06;7.72;;;2.55;;
20557;SDS011;10437;48.156;11.530;2022-07-29T12:10:35;4.20;;;2.15;;
20557;SDS011;10437;48.156;11.530;2022-07-29T12:13:02;3.65;;;2.20;;
20557;SDS011;10437;48.156;11.530;2022-07-29T12:15:30;7.50;;;2.30;;
20557;SDS011;10437;48.156;11.530;2022-07-29T12:17:57;5.75;;;2.10;;
20557;SDS011;10437;48.156;11.530;2022-07-29T12:20:25;5.43;;;2.33;;
20557;SDS011;10437;48.156;11.530;2022-07-29T12:22:53;5.07;;;2.60;;
20557;SDS011;10437;48.156;11.530;2022-07-29T12:25:21;4.45;;;2.17;;
20557;SDS011;10437;48.156;11.530;2022-07-29T12:27:58;4.80;;;1.92;;
20557;SDS011;10437;48.156;11.530;2022-07-29T12:30:34;4.18;;;2.03;;
20557;SDS011;10437;48.156;11.530;2022-07-29T12:33:19;3.35;;;2.20;;
20557;SDS011;10437;48.156;11.530;2022-07-29T12:35:48;4.47;;;2.20;;
20557;SDS011;10437;48.156;11.530;2022-07-29T12:38:16;2.10;;;1.73;;
20557;SDS011;10437;48.156;11.530;2022-07-29T12:40:44;5.25;;;2.20;;
20557;SDS011;10437;48.156;11.530;2022-07-29T12:43:14;6.53;;;2.20;;
20557;SDS011;10437;48.156;11.530;2022-07-29T12:45:43;4.13;;;2.05;;
20557;SDS011;10437;48.156;11.530;2022-07-29T12:48:11;5.03;;;1.92;;
20557;SDS011;10437;48.156;11.530;2022-07-29T12:50:55;5.13;;;2.05;;
20557;SDS011;10437;48.156;11.530;2022-07-29T12:53:23;1.67;;;1.58;;
20557;SDS011;10437;48.156;11.530;2022-07-29T12:55:51;1.98;;;1.75;;
20557;SDS011;10437;48.156;11.530;2022-07-29T12:58:28;2.92;;;1.90;;
20557;SDS011;10437;48.156;11.530;2022-07-29T13:01:03;2.33;;;1.88;;
20557;SDS011;10437;48.156;11.530;2022-07-29T13:03:42;3.30;;;1.75;;
20557;SDS011;10437;48.156;11.530;2022-07-29T13:06:33;4.57;;;1.95;;
20557;SDS011;10437;48.156;11.530;2022-07-29T13:09:03;5.50;;;2.13;;
20557;SDS011;10437;48.156;11.530;2022-07-29T13:11:33;4.85;;;1.85;;
20557;SDS011;10437;48.156;11.530;2022-07-29T13:14:03;3.85;;;1.85;;
20557;SDS011;10437;48.156;11.530;2022-07-29T13:16:31;2.75;;;1.85;;
20557;SDS011;10437;48.156;11.530;2022-07-29T13:19:08;2.80;;;1.77;;
20557;SDS011;10437;48.156;11.530;2022-07-29T13:21:36;4.85;;;2.30;;
20557;SDS011;10437;48.156;11.530;2022-07-29T13:24:04;3.00;;;1.90;;
20557;SDS011;10437;48.156;11.530;2022-07-29T13:26:32;3.25;;;1.80;;
20557;SDS011;10437;48.156;11.530;2022-07-29T13:28:59;5.82;;;2.05;;
20557;SDS011;10437;48.156;11.530;2022-07-29T13:31:28;4.13;;;2.00;;
20557;SDS011;10437;48.156;11.530;2022-07-29T13:33:55;8.45;;;2.00;;
20557;SDS011;10437;48.156;11.530;2022-07-29T13:36:22;7.38;;;2.17;;
20557;SDS011;10437;48.156;11.530;2022-07-29T13:38:49;3.30;;;2.00;;
20557;SDS011;10437;48.156;11.530;2022-07-29T13:41:16;3.53;;;2.25;;
20557;SDS011;10437;48.156;11.530;2022-07-29T13:43:44;5.70;;;2.13;;
20557;SDS011;10437;48.156;11.530;2022-07-29T13:46:11;2.60;;;2.17;;
20557;SDS011;10437;48.156;11.530;2022-07-29T13:48:39;3.67;;;1.88;;
20557;SDS011;10437;48.156;11.530;2022-07-29T13:51:06;2.83;;;2.25;;
20557;SDS011;10437;48.156;11.530;2022-07-29T13:53:33;4.68;;;1.80;;
20557;SDS011;10437;48.156;11.530;2022-07-29T13:56:01;5.22;;;1.80;;
20557;SDS011;10437;48.156;11.530;2022-07-29T13:58:30;3.13;;;1.85;;
20557;SDS011;10437;48.156;11.530;2022-07-29T14:00:57;1.70;;;1.60;;
20557;SDS011;10437;48.156;11.530;2022-07-29T14:03:25;2.88;;;1.40;;
20557;SDS011;10437;48.156;11.530;2022-07-29T14:05:54;5.75;;;1.67;;
20557;SDS011;10437;48.156;11.530;2022-07-29T14:08:21;2.80;;;1.55;;
20557;SDS011;10437;48.156;11.530;2022-07-29T14:10:48;2.63;;;1.45;;
20557;SDS011;10437;48.156;11.530;2022-07-29T14:13:16;2.42;;;1.58;;
20557;SDS011;10437;48.156;11.530;2022-07-29T14:15:43;5.43;;;1.90;;
20557;SDS011;10437;48.156;11.530;2022-07-29T14:18:10;2.88;;;1.70;;
20557;SDS011;10437;48.156;11.530;2022-07-29T14:20:37;2.38;;;1.65;;
20557;SDS011;10437;48.156;11.530;2022-07-29T14:23:05;3.22;;;1.42;;
20557;SDS011;10437;48.156;11.530;2022-07-29T14:25:32;2.45;;;1.63;;
20557;SDS011;10437;48.156;11.530;2022-07-29T14:28:00;2.65;;;1.50;;
20557;SDS011;10437;48.156;11.530;2022-07-29T14:30:27;3.47;;;1.60;;
20557;SDS011;10437;48.156;11.530;2022-07-29T14:32:54;2.25;;;1.70;;
20557;SDS011;10437;48.156;11.530;2022-07-29T14:35:21;2.40;;;1.65;;
20557;SDS011;10437;48.156;11.530;2022-07-29T14:37:48;3.45;;;1.42;;
20557;SDS011;10437;48.156;11.530;2022-07-29T14:40:17;5.35;;;1.75;;
20557;SDS011;10437;48.156;11.530;2022-07-29T14:42:43;2.65;;;1.50;;
20557;SDS011;10437;48.156;11.530;2022-07-29T14:45:11;5.65;;;1.65;;
20557;SDS011;10437;48.156;11.530;2022-07-29T14:47:38;2.05;;;1.50;;
20557;SDS011;10437;48.156;11.530;2022-07-29T14:50:05;4.70;;;1.80;;
20557;SDS011;10437;48.156;11.530;2022-07-29T14:52:33;3.58;;;1.80;;
20557;SDS011;10437;48.156;11.530;2022-07-29T14:55:00;2.42;;;1.70;;
20557;SDS011;10437;48.156;11.530;2022-07-29T14:57:29;4.95;;;1.55;;